sensor_id;sensor_type;location;lat;lon;timestamp;temperature;humidity
52245;DHT22;55759;51.586;-1.758;2023-10-09T00:01:15;15.10;88.50
52245;DHT22;55759;51.586;-1.758;2023-10-09T00:04:19;15.10;88.50
52245;DHT22;55759;51.586;-1.758;2023-10-09T00:10:59;15.00;88.30
52245;DHT22;55759;51.586;-1.758;2023-10-09T00:20:29;15.00;88.60
52245;DHT22;55759;51.586;-1.758;2023-10-09T00:23:39;15.00;88.50
52245;DHT22;55759;51.586;-1.758;2023-10-09T00:26:44;15.00;88.40
52245;DHT22;55759;51.586;-1.758;2023-10-09T00:29:53;14.90;88.60
52245;DHT22;55759;51.586;-1.758;2023-10-09T00:32:44;14.90;88.60
52245;DHT22;55759;51.586;-1.758;2023-10-09T00:39:05;14.80;88.90
52245;DHT22;55759;51.586;-1.758;2023-10-09T00:45:05;14.60;89.10
52245;DHT22;55759;51.586;-1.758;2023-10-09T00:51:22;14.50;89.30
52245;DHT22;55759;51.586;-1.758;2023-10-09T01:01:29;14.20;90.00
52245;DHT22;55759;51.586;-1.758;2023-10-09T01:04:42;14.20;90.10
52245;DHT22;55759;51.586;-1.758;2023-10-09T01:08:09;14.20;90.20
52245;DHT22;55759;51.586;-1.758;2023-10-09T01:14:32;14.10;90.20
52245;DHT22;55759;51.586;-1.758;2023-10-09T01:27:17;14.00;90.30
52245;DHT22;55759;51.586;-1.758;2023-10-09T01:30:02;14.00;90.30
52245;DHT22;55759;51.586;-1.758;2023-10-09T01:32:47;14.00;90.20
52245;DHT22;55759;51.586;-1.758;2023-10-09T01:35:31;14.00;90.30
52245;DHT22;55759;51.586;-1.758;2023-10-09T01:38:46;14.00;90.20
52245;DHT22;55759;51.586;-1.758;2023-10-09T01:45:05;13.90;90.10
52245;DHT22;55759;51.586;-1.758;2023-10-09T01:48:06;13.90;90.00
52245;DHT22;55759;51.586;-1.758;2023-10-09T01:51:27;13.80;90.10
52245;DHT22;55759;51.586;-1.758;2023-10-09T01:54:32;13.80;90.20
52245;DHT22;55759;51.586;-1.758;2023-10-09T01:57:38;13.70;90.10
52245;DHT22;55759;51.586;-1.758;2023-10-09T02:03:33;13.60;90.30
52245;DHT22;55759;51.586;-1.758;2023-10-09T02:06:36;13.60;90.30
52245;DHT22;55759;51.586;-1.758;2023-10-09T02:09:28;13.60;90.30
52245;DHT22;55759;51.586;-1.758;2023-10-09T02:12:42;13.60;90.30
52245;DHT22;55759;51.586;-1.758;2023-10-09T02:15:39;13.60;90.40
52245;DHT22;55759;51.586;-1.758;2023-10-09T02:18:51;13.60;90.30
52245;DHT22;55759;51.586;-1.758;2023-10-09T02:28:24;13.50;90.10
52245;DHT22;55759;51.586;-1.758;2023-10-09T02:31:12;13.40;90.10
52245;DHT22;55759;51.586;-1.758;2023-10-09T02:33:49;13.40;90.20
52245;DHT22;55759;51.586;-1.758;2023-10-09T02:37:06;13.40;90.00
52245;DHT22;55759;51.586;-1.758;2023-10-09T02:40:00;13.40;90.00
52245;DHT22;55759;51.586;-1.758;2023-10-09T02:42:51;13.40;90.10
52245;DHT22;55759;51.586;-1.758;2023-10-09T02:45:36;13.40;89.90
52245;DHT22;55759;51.586;-1.758;2023-10-09T02:48:12;13.40;89.90
52245;DHT22;55759;51.586;-1.758;2023-10-09T02:50:55;13.40;90.10
52245;DHT22;55759;51.586;-1.758;2023-10-09T02:53:39;13.50;89.90
52245;DHT22;55759;51.586;-1.758;2023-10-09T02:56:46;13.50;89.80
52245;DHT22;55759;51.586;-1.758;2023-10-09T02:59:31;13.50;89.50
52245;DHT22;55759;51.586;-1.758;2023-10-09T03:02:27;13.50;89.50
52245;DHT22;55759;51.586;-1.758;2023-10-09T03:05:06;13.50;89.50
52245;DHT22;55759;51.586;-1.758;2023-10-09T03:07:46;13.60;89.00
52245;DHT22;55759;51.586;-1.758;2023-10-09T03:10:22;13.60;88.80
52245;DHT22;55759;51.586;-1.758;2023-10-09T03:13:05;13.60;88.80
52245;DHT22;55759;51.586;-1.758;2023-10-09T03:16:22;13.70;88.30
52245;DHT22;55759;51.586;-1.758;2023-10-09T03:19:04;13.70;88.00
52245;DHT22;55759;51.586;-1.758;2023-10-09T03:21:57;13.70;87.90
52245;DHT22;55759;51.586;-1.758;2023-10-09T03:24:51;13.80;87.60
52245;DHT22;55759;51.586;-1.758;2023-10-09T03:27:25;13.90;87.00
52245;DHT22;55759;51.586;-1.758;2023-10-09T03:30:25;13.90;86.90
52245;DHT22;55759;51.586;-1.758;2023-10-09T03:36:37;13.90;86.40
52245;DHT22;55759;51.586;-1.758;2023-10-09T03:39:28;14.00;86.50
52245;DHT22;55759;51.586;-1.758;2023-10-09T03:42:31;13.90;86.40
52245;DHT22;55759;51.586;-1.758;2023-10-09T03:45:07;13.90;86.50
52245;DHT22;55759;51.586;-1.758;2023-10-09T03:48:02;13.90;86.70
52245;DHT22;55759;51.586;-1.758;2023-10-09T03:51:04;13.90;86.40
52245;DHT22;55759;51.586;-1.758;2023-10-09T03:57:39;13.90;86.60
52245;DHT22;55759;51.586;-1.758;2023-10-09T04:00:21;13.90;86.80
52245;DHT22;55759;51.586;-1.758;2023-10-09T04:02:58;13.90;87.40
52245;DHT22;55759;51.586;-1.758;2023-10-09T04:06:03;13.80;87.50
52245;DHT22;55759;51.586;-1.758;2023-10-09T04:11:53;13.80;87.80
52245;DHT22;55759;51.586;-1.758;2023-10-09T04:14:45;13.80;88.10
52245;DHT22;55759;51.586;-1.758;2023-10-09T04:17:16;13.80;88.10
52245;DHT22;55759;51.586;-1.758;2023-10-09T04:20:27;13.80;87.80
52245;DHT22;55759;51.586;-1.758;2023-10-09T04:26:13;13.90;87.10
52245;DHT22;55759;51.586;-1.758;2023-10-09T04:28:44;13.80;87.10
52245;DHT22;55759;51.586;-1.758;2023-10-09T04:31:19;13.80;87.20
52245;DHT22;55759;51.586;-1.758;2023-10-09T04:34:23;13.90;87.10
52245;DHT22;55759;51.586;-1.758;2023-10-09T04:37:04;13.80;87.20
52245;DHT22;55759;51.586;-1.758;2023-10-09T04:40:22;13.80;87.40
52245;DHT22;55759;51.586;-1.758;2023-10-09T04:43:09;13.80;87.50
52245;DHT22;55759;51.586;-1.758;2023-10-09T04:45:54;13.70;87.60
52245;DHT22;55759;51.586;-1.758;2023-10-09T04:48:53;13.70;87.60
52245;DHT22;55759;51.586;-1.758;2023-10-09T04:51:47;13.70;87.80
52245;DHT22;55759;51.586;-1.758;2023-10-09T04:54:42;13.60;88.00
52245;DHT22;55759;51.586;-1.758;2023-10-09T04:57:39;13.60;88.20
52245;DHT22;55759;51.586;-1.758;2023-10-09T05:00:34;13.60;88.20
52245;DHT22;55759;51.586;-1.758;2023-10-09T05:03:21;13.60;88.40
52245;DHT22;55759;51.586;-1.758;2023-10-09T05:06:26;13.60;88.60
52245;DHT22;55759;51.586;-1.758;2023-10-09T05:12:42;13.50;88.70
52245;DHT22;55759;51.586;-1.758;2023-10-09T05:18:58;13.50;88.90
52245;DHT22;55759;51.586;-1.758;2023-10-09T05:21:49;13.40;88.70
52245;DHT22;55759;51.586;-1.758;2023-10-09T05:24:46;13.50;88.90
52245;DHT22;55759;51.586;-1.758;2023-10-09T05:27:52;13.40;89.10
52245;DHT22;55759;51.586;-1.758;2023-10-09T05:30:41;13.40;89.10
52245;DHT22;55759;51.586;-1.758;2023-10-09T05:33:47;13.40;89.30
52245;DHT22;55759;51.586;-1.758;2023-10-09T05:36:37;13.40;89.30
52245;DHT22;55759;51.586;-1.758;2023-10-09T05:52:11;13.40;89.10
52245;DHT22;55759;51.586;-1.758;2023-10-09T05:55:01;13.40;89.10
52245;DHT22;55759;51.586;-1.758;2023-10-09T05:58:25;13.30;89.20
52245;DHT22;55759;51.586;-1.758;2023-10-09T06:01:46;13.30;89.40
52245;DHT22;55759;51.586;-1.758;2023-10-09T06:08:23;13.20;89.70
52245;DHT22;55759;51.586;-1.758;2023-10-09T06:11:26;13.20;89.80
52245;DHT22;55759;51.586;-1.758;2023-10-09T06:18:12;13.20;89.80
52245;DHT22;55759;51.586;-1.758;2023-10-09T06:21:39;13.30;89.70
52245;DHT22;55759;51.586;-1.758;2023-10-09T06:24:27;13.30;89.60
52245;DHT22;55759;51.586;-1.758;2023-10-09T06:27:31;13.30;89.50
52245;DHT22;55759;51.586;-1.758;2023-10-09T06:30:41;13.30;89.60
52245;DHT22;55759;51.586;-1.758;2023-10-09T06:33:37;13.30;89.60
52245;DHT22;55759;51.586;-1.758;2023-10-09T07:09:32;13.70;89.10
52245;DHT22;55759;51.586;-1.758;2023-10-09T07:15:51;13.90;88.70
52245;DHT22;55759;51.586;-1.758;2023-10-09T07:25:44;14.20;88.60
52245;DHT22;55759;51.586;-1.758;2023-10-09T07:32:19;14.50;88.60
52245;DHT22;55759;51.586;-1.758;2023-10-09T07:35:03;14.60;88.20
52245;DHT22;55759;51.586;-1.758;2023-10-09T07:38:26;14.70;87.80
52245;DHT22;55759;51.586;-1.758;2023-10-09T07:45:07;14.90;87.90
52245;DHT22;55759;51.586;-1.758;2023-10-09T08:16:09;15.80;86.90
52245;DHT22;55759;51.586;-1.758;2023-10-09T08:22:39;16.10;86.60
52245;DHT22;55759;51.586;-1.758;2023-10-09T08:25:33;16.20;85.70
52245;DHT22;55759;51.586;-1.758;2023-10-09T08:28:21;16.20;85.90
52245;DHT22;55759;51.586;-1.758;2023-10-09T08:35:37;16.40;85.90
52245;DHT22;55759;51.586;-1.758;2023-10-09T08:52:26;16.70;84.70
52245;DHT22;55759;51.586;-1.758;2023-10-09T09:08:43;17.40;83.80
52245;DHT22;55759;51.586;-1.758;2023-10-09T09:11:29;17.60;83.40
52245;DHT22;55759;51.586;-1.758;2023-10-09T09:21:41;18.20;81.80
52245;DHT22;55759;51.586;-1.758;2023-10-09T09:45:37;19.00;78.60
52245;DHT22;55759;51.586;-1.758;2023-10-09T09:48:30;19.00;79.30
52245;DHT22;55759;51.586;-1.758;2023-10-09T10:05:12;19.80;75.40
52245;DHT22;55759;51.586;-1.758;2023-10-09T10:25:54;22.10;69.80
52245;DHT22;55759;51.586;-1.758;2023-10-09T10:36:01;22.60;68.60
52245;DHT22;55759;51.586;-1.758;2023-10-09T10:46:07;22.50;68.30
52245;DHT22;55759;51.586;-1.758;2023-10-09T10:49:06;22.40;69.40
52245;DHT22;55759;51.586;-1.758;2023-10-09T10:51:55;22.40;69.40
52245;DHT22;55759;51.586;-1.758;2023-10-09T10:54:32;22.60;68.20
52245;DHT22;55759;51.586;-1.758;2023-10-09T10:56:57;22.60;69.20
52245;DHT22;55759;51.586;-1.758;2023-10-09T10:59:48;22.80;69.30
52245;DHT22;55759;51.586;-1.758;2023-10-09T11:02:41;23.10;66.60
52245;DHT22;55759;51.586;-1.758;2023-10-09T11:05:13;23.40;67.50
52245;DHT22;55759;51.586;-1.758;2023-10-09T11:08:30;23.80;65.40
52245;DHT22;55759;51.586;-1.758;2023-10-09T11:11:15;24.10;63.70
52245;DHT22;55759;51.586;-1.758;2023-10-09T11:13:52;24.50;61.40
52245;DHT22;55759;51.586;-1.758;2023-10-09T11:16:32;24.80;61.50
52245;DHT22;55759;51.586;-1.758;2023-10-09T11:19:11;25.10;62.10
52245;DHT22;55759;51.586;-1.758;2023-10-09T11:21:53;25.40;59.10
52245;DHT22;55759;51.586;-1.758;2023-10-09T11:24:40;25.70;60.60
52245;DHT22;55759;51.586;-1.758;2023-10-09T11:27:14;26.10;58.70
52245;DHT22;55759;51.586;-1.758;2023-10-09T11:30:06;26.10;60.00
52245;DHT22;55759;51.586;-1.758;2023-10-09T11:33:06;26.10;59.40
52245;DHT22;55759;51.586;-1.758;2023-10-09T11:35:40;25.80;57.90
52245;DHT22;55759;51.586;-1.758;2023-10-09T11:38:11;25.60;56.80
52245;DHT22;55759;51.586;-1.758;2023-10-09T11:40:49;25.50;59.70
52245;DHT22;55759;51.586;-1.758;2023-10-09T11:43:47;25.60;59.20
52245;DHT22;55759;51.586;-1.758;2023-10-09T11:46:30;25.80;56.50
52245;DHT22;55759;51.586;-1.758;2023-10-09T11:49:16;25.80;55.90
52245;DHT22;55759;51.586;-1.758;2023-10-09T11:51:50;25.60;59.00
52245;DHT22;55759;51.586;-1.758;2023-10-09T11:54:35;25.50;59.60
52245;DHT22;55759;51.586;-1.758;2023-10-09T11:57:07;25.40;58.70
52245;DHT22;55759;51.586;-1.758;2023-10-09T11:59:34;25.40;58.50
52245;DHT22;55759;51.586;-1.758;2023-10-09T12:02:07;25.40;58.80
52245;DHT22;55759;51.586;-1.758;2023-10-09T12:04:39;25.50;59.50
52245;DHT22;55759;51.586;-1.758;2023-10-09T12:07:10;25.70;59.30
52245;DHT22;55759;51.586;-1.758;2023-10-09T12:09:37;25.70;59.70
52245;DHT22;55759;51.586;-1.758;2023-10-09T12:12:07;25.70;59.30
52245;DHT22;55759;51.586;-1.758;2023-10-09T12:14:35;25.40;59.00
52245;DHT22;55759;51.586;-1.758;2023-10-09T12:17:16;25.10;59.10
52245;DHT22;55759;51.586;-1.758;2023-10-09T12:19:44;24.80;59.60
52245;DHT22;55759;51.586;-1.758;2023-10-09T12:22:33;24.70;60.20
52245;DHT22;55759;51.586;-1.758;2023-10-09T12:24:59;24.60;61.00
52245;DHT22;55759;51.586;-1.758;2023-10-09T12:27:24;24.60;60.70
52245;DHT22;55759;51.586;-1.758;2023-10-09T12:29:53;24.60;61.50
52245;DHT22;55759;51.586;-1.758;2023-10-09T12:32:32;24.80;58.80
52245;DHT22;55759;51.586;-1.758;2023-10-09T12:35:01;25.00;60.70
52245;DHT22;55759;51.586;-1.758;2023-10-09T12:37:27;25.30;58.70
52245;DHT22;55759;51.586;-1.758;2023-10-09T12:39:57;25.60;58.40
52245;DHT22;55759;51.586;-1.758;2023-10-09T12:42:23;26.00;57.30
52245;DHT22;55759;51.586;-1.758;2023-10-09T12:45:06;26.50;57.80
52245;DHT22;55759;51.586;-1.758;2023-10-09T12:47:35;27.40;58.00
52245;DHT22;55759;51.586;-1.758;2023-10-09T12:50:06;28.60;53.50
52245;DHT22;55759;51.586;-1.758;2023-10-09T12:52:39;29.90;52.60
52245;DHT22;55759;51.586;-1.758;2023-10-09T12:55:05;31.50;51.30
52245;DHT22;55759;51.586;-1.758;2023-10-09T12:57:36;32.90;45.40
52245;DHT22;55759;51.586;-1.758;2023-10-09T13:00:02;34.30;44.30
52245;DHT22;55759;51.586;-1.758;2023-10-09T13:02:36;35.50;43.80
52245;DHT22;55759;51.586;-1.758;2023-10-09T13:05:02;36.70;39.80
52245;DHT22;55759;51.586;-1.758;2023-10-09T13:07:33;37.70;37.80
52245;DHT22;55759;51.586;-1.758;2023-10-09T13:10:27;38.10;35.20
52245;DHT22;55759;51.586;-1.758;2023-10-09T13:13:36;38.40;37.90
52245;DHT22;55759;51.586;-1.758;2023-10-09T13:16:40;39.40;37.10
52245;DHT22;55759;51.586;-1.758;2023-10-09T13:19:17;40.40;34.70
52245;DHT22;55759;51.586;-1.758;2023-10-09T13:21:56;41.20;31.60
52245;DHT22;55759;51.586;-1.758;2023-10-09T13:28:11;41.40;31.60
52245;DHT22;55759;51.586;-1.758;2023-10-09T13:30:38;41.90;33.20
52245;DHT22;55759;51.586;-1.758;2023-10-09T13:33:32;42.40;33.70
52245;DHT22;55759;51.586;-1.758;2023-10-09T13:36:22;42.60;31.60
52245;DHT22;55759;51.586;-1.758;2023-10-09T13:39:07;42.40;34.30
52245;DHT22;55759;51.586;-1.758;2023-10-09T13:41:55;42.40;33.30
52245;DHT22;55759;51.586;-1.758;2023-10-09T13:44:42;42.80;32.70
52245;DHT22;55759;51.586;-1.758;2023-10-09T13:47:12;43.10;34.50
52245;DHT22;55759;51.586;-1.758;2023-10-09T13:49:45;43.40;35.20
52245;DHT22;55759;51.586;-1.758;2023-10-09T13:52:15;43.90;34.20
52245;DHT22;55759;51.586;-1.758;2023-10-09T13:54:46;43.90;32.90
52245;DHT22;55759;51.586;-1.758;2023-10-09T13:57:18;44.10;34.40
52245;DHT22;55759;51.586;-1.758;2023-10-09T13:59:47;44.10;29.60
52245;DHT22;55759;51.586;-1.758;2023-10-09T14:02:17;43.90;31.20
52245;DHT22;55759;51.586;-1.758;2023-10-09T14:04:45;43.70;29.80
52245;DHT22;55759;51.586;-1.758;2023-10-09T14:07:11;43.20;35.10
52245;DHT22;55759;51.586;-1.758;2023-10-09T14:09:43;42.50;31.90
52245;DHT22;55759;51.586;-1.758;2023-10-09T14:12:09;41.00;34.30
52245;DHT22;55759;51.586;-1.758;2023-10-09T14:14:45;39.10;38.50
52245;DHT22;55759;51.586;-1.758;2023-10-09T14:17:20;37.30;37.30
52245;DHT22;55759;51.586;-1.758;2023-10-09T14:19:59;35.70;44.60
52245;DHT22;55759;51.586;-1.758;2023-10-09T14:22:45;34.30;48.40
52245;DHT22;55759;51.586;-1.758;2023-10-09T14:25:16;33.20;47.40
52245;DHT22;55759;51.586;-1.758;2023-10-09T14:27:46;32.10;48.90
52245;DHT22;55759;51.586;-1.758;2023-10-09T14:30:16;31.20;51.50
52245;DHT22;55759;51.586;-1.758;2023-10-09T14:32:49;30.50;54.60
52245;DHT22;55759;51.586;-1.758;2023-10-09T14:35:21;29.90;55.40
52245;DHT22;55759;51.586;-1.758;2023-10-09T14:37:52;29.30;56.20
52245;DHT22;55759;51.586;-1.758;2023-10-09T14:40:19;28.80;58.00
52245;DHT22;55759;51.586;-1.758;2023-10-09T14:42:56;28.30;59.70
52245;DHT22;55759;51.586;-1.758;2023-10-09T14:49:26;27.50;57.10
52245;DHT22;55759;51.586;-1.758;2023-10-09T14:52:19;27.10;60.70
52245;DHT22;55759;51.586;-1.758;2023-10-09T14:54:49;26.80;60.50
52245;DHT22;55759;51.586;-1.758;2023-10-09T15:05:13;26.40;62.10
52245;DHT22;55759;51.586;-1.758;2023-10-09T15:07:57;26.10;61.90
52245;DHT22;55759;51.586;-1.758;2023-10-09T15:22:06;25.40;63.30
52245;DHT22;55759;51.586;-1.758;2023-10-09T15:35:36;24.90;60.30
52245;DHT22;55759;51.586;-1.758;2023-10-09T15:38:07;24.70;58.90
52245;DHT22;55759;51.586;-1.758;2023-10-09T15:43:57;24.50;59.70
52245;DHT22;55759;51.586;-1.758;2023-10-09T18:39:21;17.20;90.50
52245;DHT22;55759;51.586;-1.758;2023-10-09T18:42:32;17.20;90.70
52245;DHT22;55759;51.586;-1.758;2023-10-09T18:45:21;17.20;90.70
52245;DHT22;55759;51.586;-1.758;2023-10-09T18:48:12;17.20;90.70
52245;DHT22;55759;51.586;-1.758;2023-10-09T18:51:21;17.20;90.50
52245;DHT22;55759;51.586;-1.758;2023-10-09T18:54:44;17.20;90.50
52245;DHT22;55759;51.586;-1.758;2023-10-09T18:57:11;17.20;90.40
52245;DHT22;55759;51.586;-1.758;2023-10-09T18:59:43;17.20;90.30
52245;DHT22;55759;51.586;-1.758;2023-10-09T19:05:39;17.20;90.20
52245;DHT22;55759;51.586;-1.758;2023-10-09T19:08:16;17.10;90.30
52245;DHT22;55759;51.586;-1.758;2023-10-09T19:11:09;17.10;90.40
52245;DHT22;55759;51.586;-1.758;2023-10-09T19:14:04;17.10;90.40
52245;DHT22;55759;51.586;-1.758;2023-10-09T19:27:11;16.80;90.60
52245;DHT22;55759;51.586;-1.758;2023-10-09T19:29:47;16.70;90.60
52245;DHT22;55759;51.586;-1.758;2023-10-09T19:32:13;16.70;90.70
52245;DHT22;55759;51.586;-1.758;2023-10-09T19:34:39;16.70;90.80
52245;DHT22;55759;51.586;-1.758;2023-10-09T19:37:07;16.60;90.80
52245;DHT22;55759;51.586;-1.758;2023-10-09T19:39:35;16.60;90.80
52245;DHT22;55759;51.586;-1.758;2023-10-09T19:42:01;16.60;90.70
52245;DHT22;55759;51.586;-1.758;2023-10-09T19:44:27;16.60;90.80
52245;DHT22;55759;51.586;-1.758;2023-10-09T19:46:54;16.60;90.80
52245;DHT22;55759;51.586;-1.758;2023-10-09T19:49:23;16.70;90.60
52245;DHT22;55759;51.586;-1.758;2023-10-09T19:52:11;16.60;90.50
52245;DHT22;55759;51.586;-1.758;2023-10-09T19:54:39;16.60;90.30
52245;DHT22;55759;51.586;-1.758;2023-10-09T19:57:08;16.60;90.20
52245;DHT22;55759;51.586;-1.758;2023-10-09T19:59:35;16.60;90.00
52245;DHT22;55759;51.586;-1.758;2023-10-09T20:02:06;16.60;89.90
52245;DHT22;55759;51.586;-1.758;2023-10-09T20:04:32;16.60;90.10
52245;DHT22;55759;51.586;-1.758;2023-10-09T20:06:58;16.60;90.00
52245;DHT22;55759;51.586;-1.758;2023-10-09T20:09:29;16.50;90.00
52245;DHT22;55759;51.586;-1.758;2023-10-09T20:11:59;16.40;90.10
52245;DHT22;55759;51.586;-1.758;2023-10-09T20:14:27;16.40;90.20
52245;DHT22;55759;51.586;-1.758;2023-10-09T20:16:54;16.40;90.30
52245;DHT22;55759;51.586;-1.758;2023-10-09T20:19:24;16.30;90.30
52245;DHT22;55759;51.586;-1.758;2023-10-09T20:21:50;16.30;90.40
52245;DHT22;55759;51.586;-1.758;2023-10-09T20:24:20;16.30;90.30
52245;DHT22;55759;51.586;-1.758;2023-10-09T20:30:07;16.20;90.40
52245;DHT22;55759;51.586;-1.758;2023-10-09T20:33:03;16.20;90.50
52245;DHT22;55759;51.586;-1.758;2023-10-09T20:35:36;16.10;90.60
52245;DHT22;55759;51.586;-1.758;2023-10-09T20:38:05;16.10;90.60
52245;DHT22;55759;51.586;-1.758;2023-10-09T20:40:38;16.10;90.70
52245;DHT22;55759;51.586;-1.758;2023-10-09T20:43:12;16.10;90.60
52245;DHT22;55759;51.586;-1.758;2023-10-09T20:45:40;16.10;90.60
52245;DHT22;55759;51.586;-1.758;2023-10-09T20:48:13;16.00;90.70
52245;DHT22;55759;51.586;-1.758;2023-10-09T20:50:57;16.00;90.60
52245;DHT22;55759;51.586;-1.758;2023-10-09T20:53:28;15.90;90.60
52245;DHT22;55759;51.586;-1.758;2023-10-09T20:56:07;15.90;90.60
52245;DHT22;55759;51.586;-1.758;2023-10-09T20:58:56;15.80;90.50
52245;DHT22;55759;51.586;-1.758;2023-10-09T21:01:30;15.80;90.40
52245;DHT22;55759;51.586;-1.758;2023-10-09T21:03:57;15.80;90.20
52245;DHT22;55759;51.586;-1.758;2023-10-09T21:06:25;15.80;90.00
52245;DHT22;55759;51.586;-1.758;2023-10-09T21:08:56;15.80;89.70
52245;DHT22;55759;51.586;-1.758;2023-10-09T21:11:25;15.80;89.80
52245;DHT22;55759;51.586;-1.758;2023-10-09T21:13:51;15.80;89.70
52245;DHT22;55759;51.586;-1.758;2023-10-09T21:16:20;15.90;89.60
52245;DHT22;55759;51.586;-1.758;2023-10-09T21:19:08;15.90;89.50
52245;DHT22;55759;51.586;-1.758;2023-10-09T21:21:34;15.90;89.50
52245;DHT22;55759;51.586;-1.758;2023-10-09T21:24:00;15.90;89.50
52245;DHT22;55759;51.586;-1.758;2023-10-09T21:26:25;15.90;89.50
52245;DHT22;55759;51.586;-1.758;2023-10-09T21:28:52;15.90;89.50
52245;DHT22;55759;51.586;-1.758;2023-10-09T21:31:21;15.90;89.60
52245;DHT22;55759;51.586;-1.758;2023-10-09T21:33:48;15.80;89.60
52245;DHT22;55759;51.586;-1.758;2023-10-09T21:36:17;15.80;89.30
52245;DHT22;55759;51.586;-1.758;2023-10-09T21:38:43;15.80;89.30
52245;DHT22;55759;51.586;-1.758;2023-10-09T21:41:13;15.80;89.30
52245;DHT22;55759;51.586;-1.758;2023-10-09T21:43:47;15.80;89.30
52245;DHT22;55759;51.586;-1.758;2023-10-09T21:46:17;15.80;89.40
52245;DHT22;55759;51.586;-1.758;2023-10-09T21:48:43;15.80;89.40
52245;DHT22;55759;51.586;-1.758;2023-10-09T21:51:09;15.70;89.60
52245;DHT22;55759;51.586;-1.758;2023-10-09T21:53:39;15.70;89.80
52245;DHT22;55759;51.586;-1.758;2023-10-09T21:56:09;15.70;89.90
52245;DHT22;55759;51.586;-1.758;2023-10-09T21:58:35;15.70;90.10
52245;DHT22;55759;51.586;-1.758;2023-10-09T22:01:02;15.70;90.30
52245;DHT22;55759;51.586;-1.758;2023-10-09T22:03:31;15.80;90.30
52245;DHT22;55759;51.586;-1.758;2023-10-09T22:05:57;15.80;90.30
52245;DHT22;55759;51.586;-1.758;2023-10-09T22:08:24;15.70;90.30
52245;DHT22;55759;51.586;-1.758;2023-10-09T22:10:50;15.80;90.30
52245;DHT22;55759;51.586;-1.758;2023-10-09T22:13:15;15.80;90.10
52245;DHT22;55759;51.586;-1.758;2023-10-09T22:15:44;15.80;90.10
52245;DHT22;55759;51.586;-1.758;2023-10-09T22:18:11;15.80;90.20
52245;DHT22;55759;51.586;-1.758;2023-10-09T22:20:46;15.70;90.30
52245;DHT22;55759;51.586;-1.758;2023-10-09T22:23:12;15.70;90.30
52245;DHT22;55759;51.586;-1.758;2023-10-09T22:25:39;15.70;90.20
52245;DHT22;55759;51.586;-1.758;2023-10-09T22:28:05;15.80;90.10
52245;DHT22;55759;51.586;-1.758;2023-10-09T22:30:35;15.80;90.00
52245;DHT22;55759;51.586;-1.758;2023-10-09T22:33:02;15.80;90.10
52245;DHT22;55759;51.586;-1.758;2023-10-09T22:35:32;15.90;90.10
52245;DHT22;55759;51.586;-1.758;2023-10-09T22:38:02;15.90;90.00
52245;DHT22;55759;51.586;-1.758;2023-10-09T22:40:38;15.90;90.10
52245;DHT22;55759;51.586;-1.758;2023-10-09T22:43:07;15.90;90.10
52245;DHT22;55759;51.586;-1.758;2023-10-09T22:45:40;15.90;90.10
52245;DHT22;55759;51.586;-1.758;2023-10-09T22:48:20;15.90;90.00
52245;DHT22;55759;51.586;-1.758;2023-10-09T22:50:55;15.90;89.90
52245;DHT22;55759;51.586;-1.758;2023-10-09T22:53:38;15.90;89.80
52245;DHT22;55759;51.586;-1.758;2023-10-09T22:56:06;15.90;89.90
52245;DHT22;55759;51.586;-1.758;2023-10-09T22:58:33;15.90;90.00
52245;DHT22;55759;51.586;-1.758;2023-10-09T23:01:05;15.80;90.10
52245;DHT22;55759;51.586;-1.758;2023-10-09T23:03:41;15.80;90.10
52245;DHT22;55759;51.586;-1.758;2023-10-09T23:06:23;15.70;90.20
52245;DHT22;55759;51.586;-1.758;2023-10-09T23:08:58;15.70;90.40
52245;DHT22;55759;51.586;-1.758;2023-10-09T23:11:37;15.70;90.50
52245;DHT22;55759;51.586;-1.758;2023-10-09T23:14:03;15.60;90.50
52245;DHT22;55759;51.586;-1.758;2023-10-09T23:16:49;15.60;90.50
52245;DHT22;55759;51.586;-1.758;2023-10-09T23:19:25;15.60;90.50
52245;DHT22;55759;51.586;-1.758;2023-10-09T23:22:12;15.60;90.50
52245;DHT22;55759;51.586;-1.758;2023-10-09T23:24:39;15.50;90.60
52245;DHT22;55759;51.586;-1.758;2023-10-09T23:27:18;15.50;90.70
52245;DHT22;55759;51.586;-1.758;2023-10-09T23:30:21;15.40;90.80
52245;DHT22;55759;51.586;-1.758;2023-10-09T23:32:58;15.40;90.90
52245;DHT22;55759;51.586;-1.758;2023-10-09T23:35:34;15.40;91.00
52245;DHT22;55759;51.586;-1.758;2023-10-09T23:38:11;15.40;91.00
52245;DHT22;55759;51.586;-1.758;2023-10-09T23:40:47;15.40;91.10
52245;DHT22;55759;51.586;-1.758;2023-10-09T23:43:14;15.40;91.10
52245;DHT22;55759;51.586;-1.758;2023-10-09T23:45:56;15.40;91.20
52245;DHT22;55759;51.586;-1.758;2023-10-09T23:48:31;15.40;91.20
52245;DHT22;55759;51.586;-1.758;2023-10-09T23:51:01;15.40;91.10
52245;DHT22;55759;51.586;-1.758;2023-10-09T23:53:33;15.30;91.10
52245;DHT22;55759;51.586;-1.758;2023-10-09T23:56:04;15.30;91.20
52245;DHT22;55759;51.586;-1.758;2023-10-09T23:58:36;15.20;91.40
